createdAt,value
2017-01-31T00:00:10.799Z,1000.25
2017-01-31T00:00:51.351Z,1000.17
2017-01-31T00:01:31.828Z,1000.23
2017-01-31T00:02:12.275Z,1000.19
2017-01-31T00:02:52.811Z,1000.2
2017-01-31T00:03:33.281Z,1000.2
2017-01-31T00:04:13.755Z,1000.2
2017-01-31T00:04:54.268Z,1000.24
2017-01-31T00:05:34.767Z,1000.12
2017-01-31T00:06:15.332Z,1000.12
2017-01-31T00:06:55.854Z,1000.19
2017-01-31T00:07:36.308Z,1000.17
2017-01-31T00:08:16.797Z,1000.18
2017-01-31T00:08:57.301Z,1000.17
2017-01-31T00:09:37.755Z,1000.13
2017-01-31T00:10:18.267Z,1000.13
2017-01-31T00:10:58.749Z,1000.17
2017-01-31T00:11:39.260Z,1000.12
2017-01-31T00:12:19.708Z,1000.18
2017-01-31T00:13:00.223Z,1000.15
2017-01-31T00:13:40.741Z,1000.23
2017-01-31T00:14:21.228Z,1000.15
2017-01-31T00:15:01.767Z,1000.18
2017-01-31T00:15:42.209Z,1000.2
2017-01-31T00:16:22.718Z,1000.18
2017-01-31T00:17:03.249Z,1000.2
2017-01-31T00:17:43.762Z,1000.22
2017-01-31T00:18:24.247Z,1000.19
2017-01-31T00:19:04.771Z,1000.2
2017-01-31T00:19:45.260Z,1000.2
2017-01-31T00:20:25.767Z,1000.23
2017-01-31T00:21:06.260Z,1000.22
2017-01-31T00:21:46.762Z,1000.22
2017-01-31T00:22:27.266Z,1000.2
2017-01-31T00:23:07.751Z,1000.22
2017-01-31T00:23:48.263Z,1000.2
2017-01-31T00:24:28.728Z,1000.21
2017-01-31T00:25:09.260Z,1000.18
2017-01-31T00:25:49.750Z,1000.22
2017-01-31T00:26:30.235Z,1000.18
2017-01-31T00:27:10.719Z,1000.17
2017-01-31T00:27:51.239Z,1000.18
2017-01-31T00:28:31.735Z,1000.17
2017-01-31T00:30:50.207Z,1000.12
2017-01-31T00:31:30.707Z,1000.13
2017-01-31T00:32:11.211Z,1000.08
2017-01-31T00:32:51.718Z,1000.11
2017-01-31T00:33:32.243Z,1000.07
2017-01-31T00:34:12.787Z,1000.07
2017-01-31T00:34:53.261Z,1000.1
2017-01-31T00:35:33.736Z,1000.06
2017-01-31T00:36:14.237Z,1000.1
2017-01-31T00:36:54.730Z,1000.07
2017-01-31T00:37:35.233Z,1000.14
2017-01-31T00:38:15.727Z,1000.08
2017-01-31T00:38:56.225Z,1000.07
2017-01-31T00:39:36.725Z,1000.07
2017-01-31T00:40:17.222Z,1000.04
2017-01-31T00:40:57.733Z,1000.09
2017-01-31T00:41:38.230Z,1000.09
2017-01-31T00:42:18.866Z,1000.14
2017-01-31T00:42:59.395Z,1000.05
2017-01-31T00:43:39.868Z,1000.07
2017-01-31T00:44:20.389Z,1000.12
2017-01-31T00:45:00.846Z,1000.01
2017-01-31T00:45:41.341Z,1000.03
2017-01-31T00:46:21.844Z,1000.11
2017-01-31T00:47:02.346Z,1000.08
2017-01-31T00:47:42.885Z,1000.08
2017-01-31T00:48:23.373Z,1000.05
2017-01-31T00:49:03.878Z,1000.1
2017-01-31T00:49:44.351Z,1000.11
2017-01-31T00:50:24.824Z,1000.12
2017-01-31T00:51:05.327Z,1000.12
2017-01-31T00:51:45.804Z,1000.12
2017-01-31T00:52:26.335Z,1000.21
2017-01-31T00:53:06.838Z,1000.12
2017-01-31T00:53:47.300Z,1000.17
2017-01-31T00:54:27.800Z,1000.15
2017-01-31T00:55:08.293Z,1000.12
2017-01-31T00:55:48.812Z,1000.19
2017-01-31T00:56:29.307Z,1000.13
2017-01-31T00:57:09.820Z,1000.11
2017-01-31T00:57:50.318Z,1000.2
2017-01-31T00:58:30.790Z,1000.16
2017-01-31T00:59:11.272Z,1000.14
2017-01-31T00:59:51.747Z,1000.17
2017-01-31T01:00:32.218Z,1000.15
2017-01-31T01:01:12.726Z,1000.16
2017-01-31T01:01:53.255Z,1000.16
2017-01-31T01:02:33.735Z,1000.2
2017-01-31T01:03:14.250Z,1000.19
2017-01-31T01:03:54.775Z,1000.24
2017-01-31T01:04:35.243Z,1000.24
2017-01-31T01:05:15.741Z,1000.21
2017-01-31T01:05:56.257Z,1000.24
2017-01-31T01:06:36.752Z,1000.19
2017-01-31T01:07:17.342Z,1000.19
2017-01-31T01:07:57.830Z,1000.23
2017-01-31T01:08:38.300Z,1000.29
2017-01-31T01:09:18.889Z,1000.21
2017-01-31T01:09:59.409Z,1000.28
2017-01-31T01:10:39.894Z,1000.22
2017-01-31T01:11:20.387Z,1000.23
2017-01-31T01:12:00.896Z,1000.23
2017-01-31T01:12:41.371Z,1000.22
2017-01-31T01:13:21.846Z,1000.22
2017-01-31T01:14:02.337Z,1000.19
2017-01-31T01:14:42.885Z,1000.21
2017-01-31T01:15:23.346Z,1000.21
2017-01-31T01:16:03.876Z,1000.25
2017-01-31T01:16:44.386Z,1000.23
2017-01-31T01:17:24.883Z,1000.27
2017-01-31T01:18:05.375Z,1000.23
2017-01-31T01:18:45.950Z,1000.24
2017-01-31T01:19:26.376Z,1000.29
2017-01-31T01:20:06.915Z,1000.25
2017-01-31T01:20:47.373Z,1000.35
2017-01-31T01:21:27.925Z,1000.26
2017-01-31T01:22:08.430Z,1000.28
2017-01-31T01:22:48.926Z,1000.28
2017-01-31T01:23:29.443Z,1000.31
2017-01-31T01:24:09.918Z,1000.33
2017-01-31T01:24:50.411Z,1000.33
2017-01-31T01:25:31.563Z,1000.33
2017-01-31T01:26:12.040Z,1000.39
2017-01-31T01:26:52.555Z,1000.32
2017-01-31T01:27:33.078Z,1000.37
2017-01-31T01:28:13.567Z,1000.36
2017-01-31T01:28:54.099Z,1000.38
2017-01-31T01:29:34.575Z,1000.38
2017-01-31T01:30:15.042Z,1000.4
2017-01-31T01:30:55.558Z,1000.33
2017-01-31T01:31:36.017Z,1000.3
2017-01-31T01:32:16.536Z,1000.33
2017-01-31T01:32:56.991Z,1000.34
2017-01-31T01:33:37.561Z,1000.33
2017-01-31T01:34:18.031Z,1000.35
2017-01-31T01:34:58.532Z,1000.37
2017-01-31T01:35:39.019Z,1000.39
2017-01-31T01:36:19.530Z,1000.4
2017-01-31T01:37:00.026Z,1000.4
2017-01-31T01:37:40.545Z,1000.39
2017-01-31T01:38:20.974Z,1000.4
2017-01-31T01:39:01.486Z,1000.45
2017-01-31T01:39:41.998Z,1000.39
2017-01-31T01:40:22.501Z,1000.42
2017-01-31T01:41:02.982Z,1000.34
2017-01-31T01:41:43.443Z,1000.42
2017-01-31T01:42:23.984Z,1000.38
2017-01-31T01:43:04.411Z,1000.39
2017-01-31T01:43:44.913Z,1000.41
2017-01-31T01:44:25.415Z,1000.4
2017-01-31T01:45:05.976Z,1000.41
2017-01-31T01:45:46.421Z,1000.4
2017-01-31T01:46:26.896Z,1000.42
2017-01-31T01:47:07.430Z,1000.39
2017-01-31T01:47:47.894Z,1000.42
2017-01-31T01:48:28.408Z,1000.33
2017-01-31T01:49:08.869Z,1000.38
2017-01-31T01:49:49.388Z,1000.39
2017-01-31T01:50:29.863Z,1000.35
2017-01-31T01:51:10.370Z,1000.42
2017-01-31T01:51:50.907Z,1000.41
2017-01-31T01:52:31.375Z,1000.43
2017-01-31T01:53:11.839Z,1000.42
2017-01-31T01:53:52.353Z,1000.38
2017-01-31T01:54:32.858Z,1000.4
2017-01-31T01:55:13.363Z,1000.37
2017-01-31T01:55:53.793Z,1000.41
2017-01-31T01:56:35.187Z,1000.38
2017-01-31T01:57:14.812Z,1000.37
2017-01-31T01:57:55.283Z,1000.4
2017-01-31T01:58:35.758Z,1000.41
2017-01-31T01:59:16.248Z,1000.43
2017-01-31T01:59:56.755Z,1000.45
2017-01-31T02:00:37.199Z,1000.43
2017-01-31T02:01:17.731Z,1000.44
2017-01-31T02:01:58.201Z,1000.47
2017-01-31T02:02:38.682Z,1000.44
2017-01-31T02:03:19.159Z,1000.44
2017-01-31T02:03:59.670Z,1000.48
2017-01-31T02:04:40.157Z,1000.46
2017-01-31T02:05:20.693Z,1000.42
2017-01-31T02:06:01.148Z,1000.44
2017-01-31T02:06:41.625Z,1000.4
2017-01-31T02:07:22.114Z,1000.4
2017-01-31T02:08:02.623Z,1000.4
2017-01-31T02:08:43.166Z,1000.38
2017-01-31T02:09:23.644Z,1000.4
2017-01-31T02:10:04.108Z,1000.43
2017-01-31T02:10:44.627Z,1000.42
2017-01-31T02:11:25.096Z,1000.34
2017-01-31T02:12:05.613Z,1000.37
2017-01-31T02:12:46.086Z,1000.4
2017-01-31T02:13:26.607Z,1000.42
2017-01-31T02:14:07.223Z,1000.39
2017-01-31T02:14:47.631Z,1000.38
2017-01-31T02:15:28.118Z,1000.4
2017-01-31T02:16:08.664Z,1000.39
2017-01-31T02:16:49.167Z,1000.32
2017-01-31T02:17:29.664Z,1000.32
2017-01-31T02:18:10.120Z,1000.34
2017-01-31T02:18:50.632Z,1000.32
2017-01-31T02:19:31.129Z,1000.29
2017-01-31T02:20:11.572Z,1000.32
2017-01-31T02:20:52.091Z,1000.28
2017-01-31T02:21:32.640Z,1000.31
2017-01-31T02:22:13.107Z,1000.27
2017-01-31T02:22:53.632Z,1000.28
2017-01-31T02:23:34.104Z,1000.29
2017-01-31T02:24:14.640Z,1000.32
2017-01-31T02:24:55.124Z,1000.29
2017-01-31T02:25:35.628Z,1000.26
2017-01-31T02:26:16.105Z,1000.27
2017-01-31T02:26:56.647Z,1000.31
2017-01-31T02:27:37.096Z,1000.28
2017-01-31T02:28:17.616Z,1000.28
2017-01-31T02:28:58.096Z,1000.35
2017-01-31T02:29:38.617Z,1000.28
2017-01-31T02:30:19.109Z,1000.32
2017-01-31T02:30:59.626Z,1000.27
2017-01-31T02:31:40.080Z,1000.3
2017-01-31T02:32:20.561Z,1000.3
2017-01-31T02:33:01.115Z,1000.32
2017-01-31T02:33:41.622Z,1000.3
2017-01-31T02:34:22.114Z,1000.29
2017-01-31T02:35:02.671Z,1000.25
2017-01-31T02:35:43.177Z,1000.31
2017-01-31T02:36:23.658Z,1000.29
2017-01-31T02:37:04.141Z,1000.29
2017-01-31T02:37:44.661Z,1000.26
2017-01-31T02:38:25.120Z,1000.22
2017-01-31T02:39:05.602Z,1000.25
2017-01-31T02:39:46.092Z,1000.28
2017-01-31T02:40:26.571Z,1000.28
2017-01-31T02:41:07.068Z,1000.19
2017-01-31T02:41:47.622Z,1000.25
2017-01-31T02:42:28.067Z,1000.28
2017-01-31T02:43:08.557Z,1000.24
2017-01-31T02:43:49.076Z,1000.21
2017-01-31T02:44:29.564Z,1000.22
2017-01-31T02:45:10.044Z,1000.2
2017-01-31T02:45:50.578Z,1000.16
2017-01-31T02:46:31.060Z,1000.15
2017-01-31T02:47:11.518Z,1000.16
2017-01-31T02:47:52.038Z,1000.16
2017-01-31T02:48:32.540Z,1000.18
2017-01-31T02:49:13.006Z,1000.13
2017-01-31T02:49:53.561Z,1000.12
2017-01-31T02:50:34.060Z,1000.13
2017-01-31T02:51:14.508Z,1000.09
2017-01-31T02:51:54.996Z,1000.06
2017-01-31T02:52:35.462Z,1000.09
2017-01-31T02:53:15.993Z,1000.09
2017-01-31T02:53:56.510Z,1000.09
2017-01-31T02:54:36.984Z,1000.09
2017-01-31T02:55:17.477Z,1000.08
2017-01-31T02:55:57.959Z,1000.07
2017-01-31T02:56:38.463Z,1000.08
2017-01-31T02:57:18.933Z,1000.12
2017-01-31T02:57:59.420Z,1000.08
2017-01-31T02:58:39.905Z,1000.08
2017-01-31T02:59:20.444Z,1000.08
2017-01-31T03:00:00.937Z,1000.08
2017-01-31T03:00:41.414Z,1000.08
2017-01-31T03:01:21.911Z,1000.11
2017-01-31T03:02:02.413Z,1000.09
2017-01-31T03:02:42.912Z,1000.11
2017-01-31T03:03:23.400Z,1000.08
2017-01-31T03:04:03.887Z,1000.09
2017-01-31T03:04:44.360Z,1000.11
2017-01-31T03:05:24.861Z,1000.08
2017-01-31T03:06:05.359Z,1000.09
2017-01-31T03:06:45.889Z,1000.08
2017-01-31T03:07:26.384Z,1000.07
2017-01-31T03:08:06.917Z,1000.06
2017-01-31T03:08:47.538Z,1000.06
2017-01-31T03:09:27.953Z,1000.03
2017-01-31T03:10:08.533Z,1000.11
2017-01-31T03:10:48.936Z,1000.05
2017-01-31T03:11:29.673Z,1000.04
2017-01-31T03:12:10.010Z,1000.05
2017-01-31T03:12:50.525Z,1000.1
2017-01-31T03:13:31.008Z,1000.11
2017-01-31T03:14:11.499Z,1000.06
2017-01-31T03:14:52.022Z,1000.14
2017-01-31T03:15:32.460Z,1000.06
2017-01-31T03:16:12.966Z,1000.05
2017-01-31T03:16:53.485Z,1000.05
2017-01-31T03:17:34.026Z,1000.05
2017-01-31T03:18:14.560Z,1000.04
2017-01-31T03:18:55.104Z,1000.08
2017-01-31T03:19:35.619Z,1000.08
2017-01-31T03:20:16.095Z,1000.1
2017-01-31T03:20:56.562Z,1000.1
2017-01-31T03:21:37.049Z,1000.15
2017-01-31T03:22:17.550Z,1000.11
2017-01-31T03:22:58.069Z,1000.09
2017-01-31T03:23:38.544Z,1000.11
2017-01-31T03:24:19.074Z,1000.1
2017-01-31T03:24:59.565Z,1000.11
2017-01-31T03:25:40.070Z,1000.03
2017-01-31T03:26:20.564Z,1000.05
2017-01-31T03:27:01.058Z,1000.09
2017-01-31T03:27:41.621Z,1000.07
2017-01-31T03:28:22.087Z,1000.1
2017-01-31T03:29:02.608Z,1000.07
2017-01-31T03:29:43.063Z,1000.12
2017-01-31T03:30:23.613Z,1000.11
2017-01-31T03:31:04.136Z,1000.13
2017-01-31T03:31:44.628Z,1000.13
2017-01-31T03:32:25.115Z,1000.14
2017-01-31T03:33:05.615Z,1000.14
2017-01-31T03:33:46.157Z,1000.15
2017-01-31T03:34:26.655Z,1000.16
2017-01-31T03:35:07.150Z,1000.15
2017-01-31T03:35:47.640Z,1000.12
2017-01-31T03:36:28.147Z,1000.17
2017-01-31T03:37:08.652Z,1000.11
2017-01-31T03:37:49.164Z,1000.12
2017-01-31T03:38:29.672Z,1000.14
2017-01-31T03:39:10.151Z,1000.12
2017-01-31T03:39:50.646Z,1000.15
2017-01-31T03:40:31.103Z,1000.13
2017-01-31T03:41:11.633Z,1000.12
2017-01-31T03:41:52.140Z,1000.1
2017-01-31T03:42:32.623Z,1000.11
2017-01-31T03:43:13.133Z,1000.09
2017-01-31T03:43:53.657Z,1000.1
2017-01-31T03:44:34.148Z,1000.09
2017-01-31T03:45:14.691Z,1000.15
2017-01-31T03:45:55.121Z,1000.12
2017-01-31T03:46:35.610Z,1000.14
2017-01-31T03:47:16.100Z,1000.12
2017-01-31T03:47:56.551Z,1000.11
2017-01-31T03:48:37.073Z,1000.11
2017-01-31T03:49:17.539Z,1000.08
2017-01-31T03:49:58.047Z,1000.06
2017-01-31T03:50:38.531Z,1000.12
2017-01-31T03:51:19.084Z,1000.07
2017-01-31T03:51:59.534Z,1000.17
2017-01-31T03:52:40.028Z,1000.1
2017-01-31T03:53:20.528Z,1000.1
2017-01-31T03:54:01.034Z,1000.1
2017-01-31T03:54:41.494Z,1000.1
2017-01-31T03:55:21.988Z,1000.12
2017-01-31T03:56:02.471Z,1000.09
2017-01-31T03:56:42.988Z,1000.12
2017-01-31T03:57:23.496Z,1000.07
2017-01-31T03:58:03.970Z,1000.07
2017-01-31T03:58:44.451Z,1000.04
2017-01-31T03:59:24.970Z,1000.07
2017-01-31T04:00:05.486Z,1000.11
2017-01-31T04:00:45.982Z,1000.13
2017-01-31T04:01:26.450Z,1000.11
2017-01-31T04:02:06.953Z,1000.12
2017-01-31T04:02:47.417Z,1000.14
2017-01-31T04:03:27.921Z,1000.11
2017-01-31T04:04:08.407Z,1000.12
2017-01-31T04:04:48.926Z,1000.09
2017-01-31T04:05:29.400Z,1000.18
2017-01-31T04:06:09.888Z,1000.09
2017-01-31T04:06:50.401Z,1000.12
2017-01-31T04:07:30.923Z,1000.11
2017-01-31T04:08:11.420Z,1000.15
2017-01-31T04:08:51.915Z,1000.13
2017-01-31T04:09:32.354Z,1000.11
2017-01-31T04:10:12.880Z,1000.15
2017-01-31T04:10:53.356Z,1000.14
2017-01-31T04:11:33.856Z,1000.15
2017-01-31T04:12:14.307Z,1000.12
2017-01-31T04:12:54.832Z,1000.18
2017-01-31T04:13:35.307Z,1000.11
2017-01-31T04:14:15.851Z,1000.15
2017-01-31T04:14:56.427Z,1000.09
2017-01-31T04:15:36.912Z,1000.12
2017-01-31T04:16:17.413Z,1000.11
2017-01-31T04:16:57.909Z,1000.13
2017-01-31T04:17:38.369Z,1000.06
2017-01-31T04:18:18.894Z,1000.12
2017-01-31T04:18:59.387Z,1000.08
2017-01-31T04:19:39.859Z,1000.04
2017-01-31T04:20:20.361Z,1000.09
2017-01-31T04:21:00.864Z,1000.07
2017-01-31T04:21:41.361Z,1000.12
2017-01-31T04:22:21.859Z,1000.06
2017-01-31T04:23:02.374Z,1000.08
2017-01-31T04:23:42.857Z,1000.08
2017-01-31T04:24:23.342Z,1000.08
2017-01-31T04:25:03.874Z,1000.07
2017-01-31T04:25:44.389Z,1000.09
2017-01-31T04:26:24.904Z,1000.12
2017-01-31T04:27:05.380Z,1000.17
2017-01-31T04:27:45.898Z,1000.17
2017-01-31T04:28:26.356Z,1000.19
2017-01-31T04:29:06.867Z,1000.14
2017-01-31T04:29:47.395Z,1000.18
2017-01-31T04:30:27.924Z,1000.12
2017-01-31T04:31:08.416Z,1000.11
2017-01-31T04:31:48.847Z,1000.16
2017-01-31T04:32:29.344Z,1000.14
2017-01-31T04:33:09.886Z,1000.08
2017-01-31T04:33:50.357Z,1000.11
2017-01-31T04:34:30.874Z,1000.11
2017-01-31T04:35:11.339Z,1000.11
2017-01-31T04:35:51.901Z,1000.06
2017-01-31T04:36:32.376Z,1000.08
2017-01-31T04:37:12.871Z,1000.11
2017-01-31T04:37:53.447Z,1000.13
2017-01-31T04:38:33.942Z,1000.15
2017-01-31T04:39:14.445Z,1000.16
2017-01-31T04:39:55.041Z,1000.13
2017-01-31T04:40:35.530Z,1000.14
2017-01-31T04:41:16.039Z,1000.1
2017-01-31T04:41:56.540Z,1000.15
2017-01-31T04:42:37.047Z,1000.17
2017-01-31T04:43:17.536Z,1000.18
2017-01-31T04:43:58.045Z,1000.19
2017-01-31T04:44:38.583Z,1000.2
2017-01-31T04:45:19.143Z,1000.17
2017-01-31T04:45:59.583Z,1000.12
2017-01-31T04:46:40.087Z,1000.15
2017-01-31T04:47:20.589Z,1000.15
2017-01-31T04:48:01.072Z,1000.15
2017-01-31T04:48:41.556Z,1000.1
2017-01-31T04:49:22.107Z,1000.12
2017-01-31T04:50:02.584Z,1000.17
2017-01-31T04:50:43.089Z,1000.16
2017-01-31T04:51:23.569Z,1000.13
2017-01-31T04:52:04.062Z,1000.14
2017-01-31T04:52:44.559Z,1000.13
2017-01-31T04:53:25.049Z,1000.16
2017-01-31T04:54:05.561Z,1000.14
2017-01-31T04:54:46.051Z,1000.11
2017-01-31T04:55:26.656Z,1000.14
2017-01-31T04:56:07.080Z,1000.11
2017-01-31T04:56:47.602Z,1000.12
2017-01-31T04:57:28.126Z,1000.1
2017-01-31T04:58:08.583Z,1000.12
2017-01-31T04:58:49.093Z,1000.18
2017-01-31T04:59:29.572Z,1000.18
2017-01-31T05:00:10.099Z,1000.21
2017-01-31T05:00:50.576Z,1000.17
2017-01-31T05:01:31.078Z,1000.2
2017-01-31T05:02:11.622Z,1000.19
2017-01-31T05:02:52.074Z,1000.21
2017-01-31T05:03:32.621Z,1000.18
2017-01-31T05:04:13.207Z,1000.24
2017-01-31T05:04:53.697Z,1000.22
2017-01-31T05:05:34.209Z,1000.25
2017-01-31T05:06:14.668Z,1000.19
2017-01-31T05:06:55.174Z,1000.18
2017-01-31T05:07:35.680Z,1000.24
2017-01-31T05:08:16.172Z,1000.19
2017-01-31T05:08:56.681Z,1000.19
2017-01-31T05:09:37.190Z,1000.23
2017-01-31T05:10:17.708Z,1000.3
2017-01-31T05:10:58.195Z,1000.23
2017-01-31T05:11:38.676Z,1000.31
2017-01-31T05:12:19.214Z,1000.33
2017-01-31T05:12:59.688Z,1000.3
2017-01-31T05:13:40.184Z,1000.32
2017-01-31T05:14:20.717Z,1000.3
2017-01-31T05:15:01.216Z,1000.27
2017-01-31T05:15:41.694Z,1000.29
2017-01-31T05:16:22.207Z,1000.27
2017-01-31T05:17:02.796Z,1000.31
2017-01-31T05:17:43.281Z,1000.27
2017-01-31T05:18:23.841Z,1000.33
2017-01-31T05:19:04.271Z,1000.29
2017-01-31T05:19:44.808Z,1000.27
2017-01-31T05:20:25.274Z,1000.26
2017-01-31T05:21:05.772Z,1000.25
2017-01-31T05:21:46.311Z,1000.3
2017-01-31T05:22:26.827Z,1000.36
2017-01-31T05:23:07.346Z,1000.31
2017-01-31T05:23:47.862Z,1000.27
2017-01-31T05:24:29.042Z,1000.29
2017-01-31T05:25:09.544Z,1000.26
2017-01-31T05:25:50.013Z,1000.23
2017-01-31T05:26:30.513Z,1000.25
2017-01-31T05:27:11.027Z,1000.27
2017-01-31T05:27:51.555Z,1000.33
2017-01-31T05:28:31.993Z,1000.3
2017-01-31T05:29:12.493Z,1000.31
2017-01-31T05:29:52.985Z,1000.33
2017-01-31T05:30:33.507Z,1000.28
2017-01-31T05:31:14.006Z,1000.35
2017-01-31T05:31:54.510Z,1000.37
2017-01-31T05:32:35.072Z,1000.37
2017-01-31T05:33:15.572Z,1000.41
2017-01-31T05:33:56.102Z,1000.4
2017-01-31T05:34:36.581Z,1000.4
2017-01-31T05:35:17.069Z,1000.36
2017-01-31T05:35:57.602Z,1000.35
2017-01-31T05:36:38.061Z,1000.36
2017-01-31T05:37:18.559Z,1000.34
2017-01-31T05:37:59.075Z,1000.36
2017-01-31T05:38:39.685Z,1000.39
2017-01-31T05:39:20.139Z,1000.36
2017-01-31T05:40:00.652Z,1000.38
2017-01-31T05:40:41.190Z,1000.37
2017-01-31T05:41:21.712Z,1000.39
2017-01-31T05:42:02.193Z,1000.35
2017-01-31T05:42:42.676Z,1000.39
2017-01-31T05:43:23.161Z,1000.36
2017-01-31T05:44:03.692Z,1000.37
2017-01-31T05:44:44.159Z,1000.34
2017-01-31T05:45:24.659Z,1000.39
2017-01-31T05:46:05.180Z,1000.39
2017-01-31T05:46:45.684Z,1000.36
2017-01-31T05:47:26.171Z,1000.35
2017-01-31T05:48:06.623Z,1000.41
2017-01-31T05:48:47.133Z,1000.36
2017-01-31T05:49:27.669Z,1000.42
2017-01-31T05:50:08.125Z,1000.41
2017-01-31T05:50:48.625Z,1000.39
2017-01-31T05:51:29.294Z,1000.39
2017-01-31T05:52:09.819Z,1000.42
2017-01-31T05:52:50.266Z,1000.41
2017-01-31T05:53:30.782Z,1000.4
2017-01-31T05:54:11.321Z,1000.43
2017-01-31T05:54:51.751Z,1000.45
2017-01-31T05:55:32.245Z,1000.42
2017-01-31T05:56:12.902Z,1000.46
2017-01-31T05:56:53.364Z,1000.42
2017-01-31T05:57:33.820Z,1000.44
2017-01-31T05:58:14.325Z,1000.4
2017-01-31T05:58:54.833Z,1000.41
2017-01-31T05:59:35.328Z,1000.45
2017-01-31T06:00:16.144Z,1000.39
2017-01-31T06:00:56.605Z,1000.43
2017-01-31T06:01:37.100Z,1000.4
2017-01-31T06:02:17.551Z,1000.43
2017-01-31T06:02:58.048Z,1000.43
2017-01-31T06:03:38.590Z,1000.47
2017-01-31T06:04:19.060Z,1000.51
2017-01-31T06:04:59.567Z,1000.53
2017-01-31T06:05:40.451Z,1000.51
2017-01-31T06:06:20.670Z,1000.55
2017-01-31T06:07:01.201Z,1000.56
2017-01-31T06:07:41.695Z,1000.6
2017-01-31T06:08:22.160Z,1000.65
2017-01-31T06:09:02.643Z,1000.66
2017-01-31T06:09:43.122Z,1000.61
2017-01-31T06:10:23.640Z,1000.65
2017-01-31T06:11:04.119Z,1000.67
2017-01-31T06:11:44.847Z,1000.7
2017-01-31T06:12:25.296Z,1000.69
2017-01-31T06:13:05.804Z,1000.74
2017-01-31T06:13:46.349Z,1000.73
2017-01-31T06:14:26.868Z,1000.73
2017-01-31T06:15:07.354Z,1000.76
2017-01-31T06:15:47.833Z,1000.78
2017-01-31T06:16:28.292Z,1000.83
2017-01-31T06:17:08.776Z,1000.78
2017-01-31T06:17:49.307Z,1000.88
2017-01-31T06:18:29.819Z,1000.82
2017-01-31T06:19:10.342Z,1000.87
2017-01-31T06:19:50.848Z,1000.84
2017-01-31T06:20:31.361Z,1000.81
2017-01-31T06:21:11.803Z,1000.87
2017-01-31T06:21:52.313Z,1000.86
2017-01-31T06:22:32.766Z,1000.82
2017-01-31T06:23:13.289Z,1000.86
2017-01-31T06:23:53.788Z,1000.8
2017-01-31T06:24:34.361Z,1000.82
2017-01-31T06:25:14.814Z,1000.86
2017-01-31T06:25:55.372Z,1000.88
2017-01-31T06:26:35.864Z,1000.91
2017-01-31T06:27:16.372Z,1000.89
2017-01-31T06:27:56.829Z,1000.79
2017-01-31T06:28:37.318Z,1000.78
2017-01-31T06:29:17.844Z,1000.81
2017-01-31T06:29:58.274Z,1000.82
2017-01-31T06:30:38.778Z,1000.88
2017-01-31T06:31:19.347Z,1000.87
2017-01-31T06:31:59.761Z,1000.91
2017-01-31T06:32:40.270Z,1000.84
2017-01-31T06:33:20.729Z,1000.85
2017-01-31T06:34:01.259Z,1000.86
2017-01-31T06:34:41.748Z,1000.91
2017-01-31T06:35:22.222Z,1000.92
2017-01-31T06:36:02.740Z,1000.94
2017-01-31T06:36:43.234Z,1000.92
2017-01-31T06:37:23.723Z,1000.91
2017-01-31T06:38:04.198Z,1000.91
2017-01-31T06:38:44.748Z,1000.92
2017-01-31T06:39:25.293Z,1000.95
2017-01-31T06:40:05.841Z,1000.94
2017-01-31T06:40:46.414Z,1000.97
2017-01-31T06:41:26.948Z,1000.89
2017-01-31T06:42:07.505Z,1000.96
2017-01-31T06:42:48.025Z,1000.94
2017-01-31T06:43:28.486Z,1001.01
2017-01-31T06:44:08.975Z,1000.98
2017-01-31T06:44:49.508Z,1000.99
2017-01-31T06:45:30.039Z,1000.98
2017-01-31T06:46:10.490Z,1001
2017-01-31T06:46:51.010Z,1000.98
2017-01-31T06:47:31.507Z,1001.02
2017-01-31T06:48:12.016Z,1000.98
2017-01-31T06:48:52.514Z,1001.02
2017-01-31T06:49:32.996Z,1001.01
2017-01-31T06:50:13.506Z,1001.03
2017-01-31T06:50:53.989Z,1001.01
2017-01-31T06:51:34.484Z,1001
2017-01-31T06:52:14.956Z,1001.07
2017-01-31T06:52:55.439Z,1001.02
2017-01-31T06:53:35.952Z,1001.07
2017-01-31T06:54:16.426Z,1001.04
2017-01-31T06:54:56.941Z,1001.1
2017-01-31T06:55:37.419Z,1001.1
2017-01-31T06:56:17.929Z,1001.11
2017-01-31T06:56:58.410Z,1001.15
2017-01-31T06:57:38.895Z,1001.13
2017-01-31T06:58:19.410Z,1001.22
2017-01-31T06:58:59.926Z,1001.16
2017-01-31T06:59:40.384Z,1001.16
2017-01-31T07:00:20.905Z,1001.23
2017-01-31T07:01:01.376Z,1001.26
2017-01-31T07:01:41.845Z,1001.22
2017-01-31T07:02:22.363Z,1001.25
2017-01-31T07:03:02.839Z,1001.29
2017-01-31T07:03:43.352Z,1001.31
2017-01-31T07:04:23.847Z,1001.27
2017-01-31T07:05:04.357Z,1001.3
2017-01-31T07:05:44.837Z,1001.29
2017-01-31T07:06:25.328Z,1001.32
2017-01-31T07:07:05.855Z,1001.29
2017-01-31T07:07:46.321Z,1001.3
2017-01-31T07:08:27.875Z,1001.31
2017-01-31T07:09:07.981Z,1001.29
2017-01-31T07:09:48.463Z,1001.33
2017-01-31T07:10:29.004Z,1001.23
2017-01-31T07:11:09.537Z,1001.24
2017-01-31T07:11:50.011Z,1001.31
2017-01-31T07:12:30.510Z,1001.28
2017-01-31T07:13:11.012Z,1001.29
2017-01-31T07:13:51.488Z,1001.24
2017-01-31T07:14:31.986Z,1001.29
2017-01-31T07:15:12.444Z,1001.28
2017-01-31T07:15:52.980Z,1001.25
2017-01-31T07:16:33.444Z,1001.22
2017-01-31T07:17:13.914Z,1001.32
2017-01-31T07:17:55.059Z,1001.35
2017-01-31T07:18:35.622Z,1001.37
2017-01-31T07:19:16.137Z,1001.37
2017-01-31T07:19:56.606Z,1001.39
2017-01-31T07:20:37.139Z,1001.34
2017-01-31T07:21:17.622Z,1001.35
2017-01-31T07:21:58.129Z,1001.39
2017-01-31T07:22:38.630Z,1001.37
2017-01-31T07:23:19.098Z,1001.38
2017-01-31T07:23:59.613Z,1001.37
2017-01-31T07:24:40.108Z,1001.4
2017-01-31T07:25:20.583Z,1001.36
2017-01-31T07:26:01.073Z,1001.36
2017-01-31T07:26:41.610Z,1001.38
2017-01-31T07:27:22.065Z,1001.4
2017-01-31T07:28:02.569Z,1001.38
2017-01-31T07:28:43.049Z,1001.41
2017-01-31T07:29:23.605Z,1001.39
2017-01-31T07:30:04.100Z,1001.47
2017-01-31T07:30:44.568Z,1001.42
2017-01-31T07:31:25.057Z,1001.47
2017-01-31T07:32:05.552Z,1001.49
2017-01-31T07:32:46.226Z,1001.51
2017-01-31T07:33:26.875Z,1001.42
2017-01-31T07:34:07.498Z,1001.46
2017-01-31T07:34:47.952Z,1001.46
2017-01-31T07:35:28.469Z,1001.49
2017-01-31T07:36:08.947Z,1001.53
2017-01-31T07:36:49.466Z,1001.52
2017-01-31T07:37:29.912Z,1001.51
2017-01-31T07:38:10.394Z,1001.55
2017-01-31T07:38:50.904Z,1001.54
2017-01-31T07:39:31.388Z,1001.53
2017-01-31T07:40:11.910Z,1001.59
2017-01-31T07:40:52.386Z,1001.64
2017-01-31T07:41:32.917Z,1001.52
2017-01-31T07:42:13.424Z,1001.57
2017-01-31T07:42:53.915Z,1001.58
2017-01-31T07:43:34.414Z,1001.58
2017-01-31T07:44:14.887Z,1001.58
2017-01-31T07:44:55.383Z,1001.59
2017-01-31T07:45:35.882Z,1001.58
2017-01-31T07:46:16.356Z,1001.58
2017-01-31T07:46:56.856Z,1001.61
2017-01-31T07:47:37.339Z,1001.57
2017-01-31T07:48:17.807Z,1001.56
2017-01-31T07:48:58.288Z,1001.59
2017-01-31T07:49:38.776Z,1001.58
2017-01-31T07:50:19.314Z,1001.59
2017-01-31T07:50:59.854Z,1001.56
2017-01-31T07:51:40.359Z,1001.6
2017-01-31T07:52:20.887Z,1001.54
2017-01-31T07:53:01.455Z,1001.51
2017-01-31T07:53:41.930Z,1001.54
2017-01-31T07:54:22.447Z,1001.6
2017-01-31T07:55:02.892Z,1001.56
2017-01-31T07:55:43.391Z,1001.6
2017-01-31T07:56:23.877Z,1001.58
2017-01-31T07:57:04.383Z,1001.63
2017-01-31T07:57:44.881Z,1001.62
2017-01-31T07:58:25.383Z,1001.61
2017-01-31T07:59:05.849Z,1001.57
2017-01-31T07:59:46.360Z,1001.57
2017-01-31T08:00:26.894Z,1001.56
2017-01-31T08:01:07.430Z,1001.58
2017-01-31T08:01:47.888Z,1001.58
2017-01-31T08:02:28.428Z,1001.57
2017-01-31T08:03:08.894Z,1001.59
2017-01-31T08:03:49.382Z,1001.64
2017-01-31T08:04:29.915Z,1001.64
2017-01-31T08:05:10.391Z,1001.66
2017-01-31T08:05:50.855Z,1001.72
2017-01-31T08:06:31.425Z,1001.73
2017-01-31T08:07:11.924Z,1001.69
2017-01-31T08:07:52.396Z,1001.7
2017-01-31T08:08:32.897Z,1001.67
2017-01-31T08:09:13.392Z,1001.7
2017-01-31T08:09:53.905Z,1001.65
2017-01-31T08:10:34.415Z,1001.64
2017-01-31T08:11:14.865Z,1001.65
2017-01-31T08:11:55.375Z,1001.65
2017-01-31T08:12:35.859Z,1001.66
2017-01-31T08:13:16.360Z,1001.65